sensor_id;sensor_type;location;lat;lon;timestamp;P1;durP1;ratioP1;P2;durP2;ratioP2
30096;SDS011;16915;51.466;3.610;2024-02-28T00:01:20;8.10;;;5.20;;
30096;SDS011;16915;51.466;3.610;2024-02-28T00:03:46;13.30;;;5.70;;
30096;SDS011;16915;51.466;3.610;2024-02-28T00:06:12;7.63;;;5.80;;
30096;SDS011;16915;51.466;3.610;2024-02-28T00:08:37;7.78;;;5.57;;
30096;SDS011;16915;51.466;3.610;2024-02-28T00:11:03;13.55;;;6.45;;
30096;SDS011;16915;51.466;3.610;2024-02-28T00:13:28;10.43;;;6.45;;
30096;SDS011;16915;51.466;3.610;2024-02-28T00:15:54;9.75;;;5.75;;
30096;SDS011;16915;51.466;3.610;2024-02-28T00:18:19;9.13;;;5.88;;
30096;SDS011;16915;51.466;3.610;2024-02-28T00:20:45;9.93;;;6.30;;
30096;SDS011;16915;51.466;3.610;2024-02-28T00:23:10;9.95;;;5.90;;
30096;SDS011;16915;51.466;3.610;2024-02-28T00:25:36;7.57;;;5.72;;
30096;SDS011;16915;51.466;3.610;2024-02-28T00:28:02;6.57;;;5.43;;
30096;SDS011;16915;51.466;3.610;2024-02-28T00:30:28;9.13;;;5.43;;
30096;SDS011;16915;51.466;3.610;2024-02-28T00:32:54;8.43;;;5.90;;
30096;SDS011;16915;51.466;3.610;2024-02-28T00:35:20;7.53;;;5.60;;
30096;SDS011;16915;51.466;3.610;2024-02-28T00:37:45;11.40;;;6.15;;
30096;SDS011;16915;51.466;3.610;2024-02-28T00:40:11;7.30;;;6.07;;
30096;SDS011;16915;51.466;3.610;2024-02-28T00:42:37;9.88;;;6.07;;
30096;SDS011;16915;51.466;3.610;2024-02-28T00:45:03;7.90;;;5.63;;
30096;SDS011;16915;51.466;3.610;2024-02-28T00:47:28;16.73;;;6.05;;
30096;SDS011;16915;51.466;3.610;2024-02-28T00:49:54;9.20;;;5.53;;
30096;SDS011;16915;51.466;3.610;2024-02-28T00:52:19;9.80;;;5.93;;
30096;SDS011;16915;51.466;3.610;2024-02-28T00:54:45;13.88;;;6.30;;
30096;SDS011;16915;51.466;3.610;2024-02-28T00:57:11;8.73;;;6.10;;
30096;SDS011;16915;51.466;3.610;2024-02-28T00:59:36;9.20;;;5.97;;
30096;SDS011;16915;51.466;3.610;2024-02-28T01:02:02;13.93;;;6.45;;
30096;SDS011;16915;51.466;3.610;2024-02-28T01:04:28;11.40;;;6.43;;
30096;SDS011;16915;51.466;3.610;2024-02-28T01:06:54;8.98;;;6.10;;
30096;SDS011;16915;51.466;3.610;2024-02-28T01:09:20;11.52;;;6.45;;
30096;SDS011;16915;51.466;3.610;2024-02-28T01:11:46;9.75;;;6.00;;
30096;SDS011;16915;51.466;3.610;2024-02-28T01:14:12;7.15;;;5.68;;
30096;SDS011;16915;51.466;3.610;2024-02-28T01:16:37;12.50;;;5.95;;
30096;SDS011;16915;51.466;3.610;2024-02-28T01:19:03;12.27;;;5.78;;
30096;SDS011;16915;51.466;3.610;2024-02-28T01:21:28;9.75;;;5.95;;
30096;SDS011;16915;51.466;3.610;2024-02-28T01:23:54;14.20;;;6.35;;
30096;SDS011;16915;51.466;3.610;2024-02-28T01:26:20;11.30;;;6.25;;
30096;SDS011;16915;51.466;3.610;2024-02-28T01:28:47;16.30;;;6.50;;
30096;SDS011;16915;51.466;3.610;2024-02-28T01:31:13;9.65;;;5.85;;
30096;SDS011;16915;51.466;3.610;2024-02-28T01:33:39;9.40;;;6.32;;
30096;SDS011;16915;51.466;3.610;2024-02-28T01:36:08;11.75;;;6.57;;
30096;SDS011;16915;51.466;3.610;2024-02-28T01:38:34;12.95;;;6.30;;
30096;SDS011;16915;51.466;3.610;2024-02-28T01:41:00;13.98;;;6.55;;
30096;SDS011;16915;51.466;3.610;2024-02-28T01:43:25;14.10;;;6.18;;
30096;SDS011;16915;51.466;3.610;2024-02-28T01:45:51;12.82;;;6.88;;
30096;SDS011;16915;51.466;3.610;2024-02-28T01:48:17;10.15;;;6.10;;
30096;SDS011;16915;51.466;3.610;2024-02-28T01:50:42;9.75;;;6.25;;
30096;SDS011;16915;51.466;3.610;2024-02-28T01:53:09;12.68;;;5.93;;
30096;SDS011;16915;51.466;3.610;2024-02-28T01:55:36;11.68;;;6.28;;
30096;SDS011;16915;51.466;3.610;2024-02-28T01:58:03;8.52;;;6.38;;
30096;SDS011;16915;51.466;3.610;2024-02-28T02:00:32;13.27;;;6.50;;
30096;SDS011;16915;51.466;3.610;2024-02-28T02:02:59;9.82;;;6.20;;
30096;SDS011;16915;51.466;3.610;2024-02-28T02:05:25;10.02;;;6.18;;
30096;SDS011;16915;51.466;3.610;2024-02-28T02:07:51;8.60;;;5.85;;
30096;SDS011;16915;51.466;3.610;2024-02-28T02:10:16;12.18;;;6.10;;
30096;SDS011;16915;51.466;3.610;2024-02-28T02:12:42;10.95;;;5.32;;
30096;SDS011;16915;51.466;3.610;2024-02-28T02:15:08;13.82;;;5.95;;
30096;SDS011;16915;51.466;3.610;2024-02-28T02:17:34;7.78;;;5.28;;
30096;SDS011;16915;51.466;3.610;2024-02-28T02:19:59;8.68;;;5.35;;
30096;SDS011;16915;51.466;3.610;2024-02-28T02:22:27;13.52;;;5.53;;
30096;SDS011;16915;51.466;3.610;2024-02-28T02:24:57;12.77;;;5.60;;
30096;SDS011;16915;51.466;3.610;2024-02-28T02:27:23;7.32;;;5.15;;
30096;SDS011;16915;51.466;3.610;2024-02-28T02:29:50;12.73;;;5.30;;
30096;SDS011;16915;51.466;3.610;2024-02-28T02:32:16;11.63;;;5.53;;
30096;SDS011;16915;51.466;3.610;2024-02-28T02:34:42;7.70;;;4.97;;
30096;SDS011;16915;51.466;3.610;2024-02-28T02:37:07;10.77;;;5.35;;
30096;SDS011;16915;51.466;3.610;2024-02-28T02:39:34;9.20;;;5.40;;
30096;SDS011;16915;51.466;3.610;2024-02-28T02:41:59;14.07;;;5.18;;
30096;SDS011;16915;51.466;3.610;2024-02-28T02:44:25;11.90;;;5.30;;
30096;SDS011;16915;51.466;3.610;2024-02-28T02:46:50;9.85;;;5.97;;
30096;SDS011;16915;51.466;3.610;2024-02-28T02:49:16;13.30;;;5.18;;
30096;SDS011;16915;51.466;3.610;2024-02-28T02:51:43;8.68;;;4.70;;
30096;SDS011;16915;51.466;3.610;2024-02-28T02:54:09;9.88;;;4.60;;
30096;SDS011;16915;51.466;3.610;2024-02-28T02:56:35;9.63;;;5.25;;
30096;SDS011;16915;51.466;3.610;2024-02-28T02:59:01;11.35;;;4.47;;
30096;SDS011;16915;51.466;3.610;2024-02-28T03:01:26;8.60;;;4.82;;
30096;SDS011;16915;51.466;3.610;2024-02-28T03:03:52;10.40;;;5.40;;
30096;SDS011;16915;51.466;3.610;2024-02-28T03:06:17;11.98;;;5.38;;
30096;SDS011;16915;51.466;3.610;2024-02-28T03:08:43;9.32;;;5.32;;
30096;SDS011;16915;51.466;3.610;2024-02-28T03:11:08;13.05;;;5.43;;
30096;SDS011;16915;51.466;3.610;2024-02-28T03:13:34;11.88;;;5.55;;
30096;SDS011;16915;51.466;3.610;2024-02-28T03:16:00;12.98;;;5.72;;
30096;SDS011;16915;51.466;3.610;2024-02-28T03:18:25;16.38;;;7.05;;
30096;SDS011;16915;51.466;3.610;2024-02-28T03:20:51;16.77;;;6.10;;
30096;SDS011;16915;51.466;3.610;2024-02-28T03:23:16;10.35;;;6.28;;
30096;SDS011;16915;51.466;3.610;2024-02-28T03:25:42;9.50;;;6.55;;
30096;SDS011;16915;51.466;3.610;2024-02-28T03:28:07;12.07;;;7.03;;
30096;SDS011;16915;51.466;3.610;2024-02-28T03:30:33;13.60;;;6.97;;
30096;SDS011;16915;51.466;3.610;2024-02-28T03:32:58;17.75;;;7.22;;
30096;SDS011;16915;51.466;3.610;2024-02-28T03:35:24;18.55;;;7.10;;
30096;SDS011;16915;51.466;3.610;2024-02-28T03:37:49;15.50;;;6.88;;
30096;SDS011;16915;51.466;3.610;2024-02-28T03:40:15;15.13;;;7.72;;
30096;SDS011;16915;51.466;3.610;2024-02-28T03:42:41;14.93;;;6.47;;
30096;SDS011;16915;51.466;3.610;2024-02-28T03:45:06;15.60;;;8.00;;
30096;SDS011;16915;51.466;3.610;2024-02-28T03:47:32;16.63;;;7.00;;
30096;SDS011;16915;51.466;3.610;2024-02-28T03:49:57;13.10;;;7.32;;
30096;SDS011;16915;51.466;3.610;2024-02-28T03:52:24;15.65;;;7.38;;
30096;SDS011;16915;51.466;3.610;2024-02-28T03:54:49;14.30;;;7.40;;
30096;SDS011;16915;51.466;3.610;2024-02-28T03:57:15;12.48;;;7.22;;
30096;SDS011;16915;51.466;3.610;2024-02-28T03:59:41;18.98;;;7.80;;
30096;SDS011;16915;51.466;3.610;2024-02-28T04:02:06;19.08;;;7.65;;
30096;SDS011;16915;51.466;3.610;2024-02-28T04:04:32;17.55;;;7.72;;
30096;SDS011;16915;51.466;3.610;2024-02-28T04:06:57;11.50;;;7.43;;
30096;SDS011;16915;51.466;3.610;2024-02-28T04:09:23;13.80;;;8.43;;
30096;SDS011;16915;51.466;3.610;2024-02-28T04:11:48;12.15;;;7.28;;
30096;SDS011;16915;51.466;3.610;2024-02-28T04:14:14;14.52;;;7.80;;
30096;SDS011;16915;51.466;3.610;2024-02-28T04:16:43;16.42;;;7.45;;
30096;SDS011;16915;51.466;3.610;2024-02-28T04:19:09;13.80;;;7.05;;
30096;SDS011;16915;51.466;3.610;2024-02-28T04:21:36;12.63;;;7.40;;
30096;SDS011;16915;51.466;3.610;2024-02-28T04:24:02;14.07;;;7.03;;
30096;SDS011;16915;51.466;3.610;2024-02-28T04:26:28;10.63;;;7.22;;
30096;SDS011;16915;51.466;3.610;2024-02-28T04:28:54;10.07;;;6.20;;
30096;SDS011;16915;51.466;3.610;2024-02-28T04:31:20;13.57;;;6.53;;
30096;SDS011;16915;51.466;3.610;2024-02-28T04:33:45;11.25;;;6.43;;
30096;SDS011;16915;51.466;3.610;2024-02-28T04:36:11;9.10;;;6.65;;
30096;SDS011;16915;51.466;3.610;2024-02-28T04:38:36;12.25;;;6.18;;
30096;SDS011;16915;51.466;3.610;2024-02-28T04:41:02;9.95;;;6.88;;
30096;SDS011;16915;51.466;3.610;2024-02-28T04:43:28;11.13;;;6.13;;
30096;SDS011;16915;51.466;3.610;2024-02-28T04:45:53;15.07;;;6.30;;
30096;SDS011;16915;51.466;3.610;2024-02-28T04:48:19;15.35;;;7.20;;
30096;SDS011;16915;51.466;3.610;2024-02-28T04:50:44;12.45;;;7.32;;
30096;SDS011;16915;51.466;3.610;2024-02-28T04:53:10;15.43;;;7.75;;
30096;SDS011;16915;51.466;3.610;2024-02-28T04:55:36;13.50;;;7.93;;
30096;SDS011;16915;51.466;3.610;2024-02-28T04:58:01;10.77;;;6.90;;
30096;SDS011;16915;51.466;3.610;2024-02-28T05:00:27;13.55;;;6.63;;
30096;SDS011;16915;51.466;3.610;2024-02-28T05:02:52;14.27;;;8.07;;
30096;SDS011;16915;51.466;3.610;2024-02-28T05:05:18;14.82;;;7.60;;
30096;SDS011;16915;51.466;3.610;2024-02-28T05:07:43;15.00;;;7.85;;
30096;SDS011;16915;51.466;3.610;2024-02-28T05:10:09;16.60;;;8.48;;
30096;SDS011;16915;51.466;3.610;2024-02-28T05:12:35;17.55;;;8.50;;
30096;SDS011;16915;51.466;3.610;2024-02-28T05:15:00;23.02;;;8.50;;
30096;SDS011;16915;51.466;3.610;2024-02-28T05:17:26;19.30;;;8.52;;
30096;SDS011;16915;51.466;3.610;2024-02-28T05:19:52;16.08;;;8.88;;
30096;SDS011;16915;51.466;3.610;2024-02-28T05:22:17;15.50;;;8.20;;
30096;SDS011;16915;51.466;3.610;2024-02-28T05:24:45;14.43;;;8.20;;
30096;SDS011;16915;51.466;3.610;2024-02-28T05:27:11;15.98;;;7.70;;
30096;SDS011;16915;51.466;3.610;2024-02-28T05:29:37;16.15;;;8.25;;
30096;SDS011;16915;51.466;3.610;2024-02-28T05:32:03;21.67;;;9.27;;
30096;SDS011;16915;51.466;3.610;2024-02-28T05:34:29;22.27;;;8.90;;
30096;SDS011;16915;51.466;3.610;2024-02-28T05:36:54;18.13;;;8.57;;
30096;SDS011;16915;51.466;3.610;2024-02-28T05:39:20;22.13;;;9.98;;
30096;SDS011;16915;51.466;3.610;2024-02-28T05:41:45;12.98;;;8.35;;
30096;SDS011;16915;51.466;3.610;2024-02-28T05:44:12;16.83;;;9.38;;
30096;SDS011;16915;51.466;3.610;2024-02-28T05:46:37;18.50;;;8.98;;
30096;SDS011;16915;51.466;3.610;2024-02-28T05:49:03;22.05;;;9.38;;
30096;SDS011;16915;51.466;3.610;2024-02-28T05:51:29;22.30;;;9.63;;
30096;SDS011;16915;51.466;3.610;2024-02-28T05:53:55;15.13;;;8.85;;
30096;SDS011;16915;51.466;3.610;2024-02-28T05:56:20;19.90;;;9.43;;
30096;SDS011;16915;51.466;3.610;2024-02-28T05:58:47;19.00;;;9.40;;
30096;SDS011;16915;51.466;3.610;2024-02-28T06:01:15;22.25;;;9.88;;
30096;SDS011;16915;51.466;3.610;2024-02-28T06:03:42;21.80;;;10.77;;
30096;SDS011;16915;51.466;3.610;2024-02-28T06:06:08;17.38;;;10.30;;
30096;SDS011;16915;51.466;3.610;2024-02-28T06:08:33;25.27;;;10.48;;
30096;SDS011;16915;51.466;3.610;2024-02-28T06:11:02;23.92;;;11.38;;
30096;SDS011;16915;51.466;3.610;2024-02-28T06:13:28;25.70;;;10.85;;
30096;SDS011;16915;51.466;3.610;2024-02-28T06:15:54;23.75;;;11.65;;
30096;SDS011;16915;51.466;3.610;2024-02-28T06:18:20;24.48;;;11.02;;
30096;SDS011;16915;51.466;3.610;2024-02-28T06:20:47;32.17;;;11.88;;
30096;SDS011;16915;51.466;3.610;2024-02-28T06:23:13;33.55;;;12.32;;
30096;SDS011;16915;51.466;3.610;2024-02-28T06:25:39;33.42;;;12.20;;
30096;SDS011;16915;51.466;3.610;2024-02-28T06:28:04;31.73;;;13.52;;
30096;SDS011;16915;51.466;3.610;2024-02-28T06:30:31;24.60;;;12.40;;
30096;SDS011;16915;51.466;3.610;2024-02-28T06:33:00;27.38;;;12.73;;
30096;SDS011;16915;51.466;3.610;2024-02-28T06:35:26;30.90;;;12.57;;
30096;SDS011;16915;51.466;3.610;2024-02-28T06:37:52;33.90;;;13.77;;
30096;SDS011;16915;51.466;3.610;2024-02-28T06:40:18;34.15;;;13.40;;
30096;SDS011;16915;51.466;3.610;2024-02-28T06:42:43;40.30;;;14.45;;
30096;SDS011;16915;51.466;3.610;2024-02-28T06:45:09;46.30;;;15.48;;
30096;SDS011;16915;51.466;3.610;2024-02-28T06:47:35;46.38;;;15.60;;
30096;SDS011;16915;51.466;3.610;2024-02-28T06:50:02;44.13;;;14.93;;
30096;SDS011;16915;51.466;3.610;2024-02-28T06:52:29;53.60;;;15.05;;
30096;SDS011;16915;51.466;3.610;2024-02-28T06:54:54;60.10;;;17.17;;
30096;SDS011;16915;51.466;3.610;2024-02-28T06:57:20;53.13;;;17.85;;
30096;SDS011;16915;51.466;3.610;2024-02-28T06:59:46;61.05;;;16.35;;
30096;SDS011;16915;51.466;3.610;2024-02-28T07:02:12;59.83;;;17.75;;
30096;SDS011;16915;51.466;3.610;2024-02-28T07:04:40;55.70;;;18.10;;
30096;SDS011;16915;51.466;3.610;2024-02-28T07:07:07;58.03;;;17.52;;
30096;SDS011;16915;51.466;3.610;2024-02-28T07:09:32;64.32;;;18.65;;
30096;SDS011;16915;51.466;3.610;2024-02-28T07:11:58;73.18;;;19.50;;
30096;SDS011;16915;51.466;3.610;2024-02-28T07:14:27;60.50;;;20.02;;
30096;SDS011;16915;51.466;3.610;2024-02-28T07:16:52;55.50;;;18.00;;
30096;SDS011;16915;51.466;3.610;2024-02-28T07:19:18;63.97;;;20.08;;
30096;SDS011;16915;51.466;3.610;2024-02-28T07:21:44;59.55;;;19.27;;
30096;SDS011;16915;51.466;3.610;2024-02-28T07:24:09;65.47;;;18.55;;
30096;SDS011;16915;51.466;3.610;2024-02-28T07:26:35;56.88;;;17.30;;
30096;SDS011;16915;51.466;3.610;2024-02-28T07:29:01;50.88;;;16.60;;
30096;SDS011;16915;51.466;3.610;2024-02-28T07:31:26;49.15;;;16.65;;
30096;SDS011;16915;51.466;3.610;2024-02-28T07:33:52;48.28;;;17.63;;
30096;SDS011;16915;51.466;3.610;2024-02-28T07:36:17;51.83;;;16.50;;
30096;SDS011;16915;51.466;3.610;2024-02-28T07:38:44;47.58;;;17.27;;
30096;SDS011;16915;51.466;3.610;2024-02-28T07:41:09;55.78;;;17.38;;
30096;SDS011;16915;51.466;3.610;2024-02-28T07:43:35;53.92;;;18.70;;
30096;SDS011;16915;51.466;3.610;2024-02-28T07:46:07;57.40;;;16.88;;
30096;SDS011;16915;51.466;3.610;2024-02-28T07:48:33;57.50;;;19.40;;
30096;SDS011;16915;51.466;3.610;2024-02-28T07:50:59;59.65;;;18.10;;
30096;SDS011;16915;51.466;3.610;2024-02-28T07:53:25;55.65;;;19.58;;
30096;SDS011;16915;51.466;3.610;2024-02-28T07:55:51;63.90;;;19.10;;
30096;SDS011;16915;51.466;3.610;2024-02-28T07:58:17;51.10;;;17.45;;
30096;SDS011;16915;51.466;3.610;2024-02-28T08:00:42;50.70;;;17.17;;
30096;SDS011;16915;51.466;3.610;2024-02-28T08:03:09;54.10;;;17.95;;
30096;SDS011;16915;51.466;3.610;2024-02-28T08:05:34;47.30;;;16.33;;
30096;SDS011;16915;51.466;3.610;2024-02-28T08:08:04;48.90;;;16.13;;
30096;SDS011;16915;51.466;3.610;2024-02-28T08:10:31;46.53;;;17.63;;
30096;SDS011;16915;51.466;3.610;2024-02-28T08:12:56;47.88;;;16.98;;
30096;SDS011;16915;51.466;3.610;2024-02-28T08:15:22;49.22;;;17.40;;
30096;SDS011;16915;51.466;3.610;2024-02-28T08:17:47;45.10;;;17.08;;
30096;SDS011;16915;51.466;3.610;2024-02-28T08:20:13;53.83;;;18.92;;
30096;SDS011;16915;51.466;3.610;2024-02-28T08:22:39;39.67;;;17.30;;
30096;SDS011;16915;51.466;3.610;2024-02-28T08:25:04;40.45;;;16.83;;
30096;SDS011;16915;51.466;3.610;2024-02-28T08:27:30;51.95;;;18.63;;
30096;SDS011;16915;51.466;3.610;2024-02-28T08:29:56;54.80;;;19.05;;
30096;SDS011;16915;51.466;3.610;2024-02-28T08:32:22;51.35;;;19.65;;
30096;SDS011;16915;51.466;3.610;2024-02-28T08:34:47;59.05;;;19.15;;
30096;SDS011;16915;51.466;3.610;2024-02-28T08:37:14;54.80;;;18.02;;
30096;SDS011;16915;51.466;3.610;2024-02-28T08:39:40;55.80;;;17.80;;
30096;SDS011;16915;51.466;3.610;2024-02-28T08:42:05;46.88;;;18.08;;
30096;SDS011;16915;51.466;3.610;2024-02-28T08:44:31;56.45;;;17.92;;
30096;SDS011;16915;51.466;3.610;2024-02-28T08:46:56;61.85;;;17.85;;
30096;SDS011;16915;51.466;3.610;2024-02-28T08:49:22;52.40;;;17.92;;
30096;SDS011;16915;51.466;3.610;2024-02-28T08:51:48;59.17;;;20.90;;
30096;SDS011;16915;51.466;3.610;2024-02-28T08:54:13;60.08;;;19.23;;
30096;SDS011;16915;51.466;3.610;2024-02-28T08:56:39;64.10;;;19.13;;
30096;SDS011;16915;51.466;3.610;2024-02-28T08:59:04;67.85;;;19.58;;
30096;SDS011;16915;51.466;3.610;2024-02-28T09:01:30;56.42;;;19.17;;
30096;SDS011;16915;51.466;3.610;2024-02-28T09:03:55;56.20;;;18.92;;
30096;SDS011;16915;51.466;3.610;2024-02-28T09:06:21;58.08;;;20.10;;
30096;SDS011;16915;51.466;3.610;2024-02-28T09:08:47;56.67;;;19.45;;
30096;SDS011;16915;51.466;3.610;2024-02-28T09:11:12;51.38;;;19.38;;
30096;SDS011;16915;51.466;3.610;2024-02-28T09:13:38;56.45;;;19.80;;
30096;SDS011;16915;51.466;3.610;2024-02-28T09:16:04;57.33;;;19.45;;
30096;SDS011;16915;51.466;3.610;2024-02-28T09:18:29;45.65;;;18.70;;
30096;SDS011;16915;51.466;3.610;2024-02-28T09:20:55;51.70;;;18.02;;
30096;SDS011;16915;51.466;3.610;2024-02-28T09:23:20;49.95;;;19.10;;
30096;SDS011;16915;51.466;3.610;2024-02-28T09:25:46;55.88;;;19.52;;
30096;SDS011;16915;51.466;3.610;2024-02-28T09:28:11;54.28;;;18.90;;
30096;SDS011;16915;51.466;3.610;2024-02-28T09:30:39;51.25;;;19.67;;
30096;SDS011;16915;51.466;3.610;2024-02-28T09:33:05;55.80;;;20.35;;
30096;SDS011;16915;51.466;3.610;2024-02-28T09:35:31;60.08;;;19.90;;
30096;SDS011;16915;51.466;3.610;2024-02-28T09:37:56;52.50;;;19.67;;
30096;SDS011;16915;51.466;3.610;2024-02-28T09:40:22;52.22;;;19.80;;
30096;SDS011;16915;51.466;3.610;2024-02-28T09:42:56;45.22;;;19.48;;
30096;SDS011;16915;51.466;3.610;2024-02-28T09:45:26;51.33;;;20.23;;
30096;SDS011;16915;51.466;3.610;2024-02-28T09:47:52;51.95;;;20.25;;
30096;SDS011;16915;51.466;3.610;2024-02-28T09:50:18;51.97;;;19.52;;
30096;SDS011;16915;51.466;3.610;2024-02-28T09:52:44;41.55;;;19.33;;
30096;SDS011;16915;51.466;3.610;2024-02-28T09:55:10;53.70;;;18.90;;
30096;SDS011;16915;51.466;3.610;2024-02-28T09:57:35;46.17;;;18.35;;
30096;SDS011;16915;51.466;3.610;2024-02-28T10:00:02;44.00;;;17.70;;
30096;SDS011;16915;51.466;3.610;2024-02-28T10:02:29;47.40;;;17.45;;
30096;SDS011;16915;51.466;3.610;2024-02-28T10:04:56;46.05;;;16.83;;
30096;SDS011;16915;51.466;3.610;2024-02-28T10:07:25;35.88;;;16.15;;
30096;SDS011;16915;51.466;3.610;2024-02-28T10:09:51;36.03;;;15.50;;
30096;SDS011;16915;51.466;3.610;2024-02-28T10:12:16;36.38;;;15.50;;
30096;SDS011;16915;51.466;3.610;2024-02-28T10:14:43;32.28;;;15.73;;
30096;SDS011;16915;51.466;3.610;2024-02-28T10:17:09;34.75;;;15.35;;
30096;SDS011;16915;51.466;3.610;2024-02-28T10:19:34;32.80;;;16.17;;
30096;SDS011;16915;51.466;3.610;2024-02-28T10:22:00;35.88;;;15.68;;
30096;SDS011;16915;51.466;3.610;2024-02-28T10:24:26;32.72;;;14.20;;
30096;SDS011;16915;51.466;3.610;2024-02-28T10:26:51;33.42;;;14.73;;
30096;SDS011;16915;51.466;3.610;2024-02-28T10:31:54;30.23;;;13.02;;
30096;SDS011;16915;51.466;3.610;2024-02-28T10:34:20;30.30;;;12.88;;
30096;SDS011;16915;51.466;3.610;2024-02-28T10:36:46;27.65;;;13.40;;
30096;SDS011;16915;51.466;3.610;2024-02-28T10:39:12;25.20;;;12.75;;
30096;SDS011;16915;51.466;3.610;2024-02-28T10:41:39;26.90;;;12.63;;
30096;SDS011;16915;51.466;3.610;2024-02-28T10:44:05;26.42;;;13.23;;
30096;SDS011;16915;51.466;3.610;2024-02-28T10:46:30;22.55;;;12.02;;
30096;SDS011;16915;51.466;3.610;2024-02-28T10:48:56;26.92;;;12.82;;
30096;SDS011;16915;51.466;3.610;2024-02-28T10:51:25;20.27;;;11.30;;
30096;SDS011;16915;51.466;3.610;2024-02-28T10:54:12;17.75;;;10.43;;
30096;SDS011;16915;51.466;3.610;2024-02-28T10:56:38;20.48;;;12.35;;
30096;SDS011;16915;51.466;3.610;2024-02-28T10:59:05;20.48;;;11.80;;
30096;SDS011;16915;51.466;3.610;2024-02-28T11:01:33;24.42;;;12.55;;
30096;SDS011;16915;51.466;3.610;2024-02-28T11:04:00;26.63;;;13.20;;
30096;SDS011;16915;51.466;3.610;2024-02-28T11:06:27;20.45;;;13.05;;
30096;SDS011;16915;51.466;3.610;2024-02-28T11:08:53;24.17;;;13.20;;
30096;SDS011;16915;51.466;3.610;2024-02-28T11:11:19;21.13;;;13.43;;
30096;SDS011;16915;51.466;3.610;2024-02-28T11:13:53;22.75;;;13.20;;
30096;SDS011;16915;51.466;3.610;2024-02-28T11:16:30;25.83;;;13.07;;
30096;SDS011;16915;51.466;3.610;2024-02-28T11:18:56;22.95;;;12.68;;
30096;SDS011;16915;51.466;3.610;2024-02-28T11:21:23;19.88;;;11.73;;
30096;SDS011;16915;51.466;3.610;2024-02-28T11:24:01;18.73;;;11.18;;
30096;SDS011;16915;51.466;3.610;2024-02-28T11:26:27;18.35;;;10.77;;
30096;SDS011;16915;51.466;3.610;2024-02-28T11:28:54;18.83;;;11.07;;
30096;SDS011;16915;51.466;3.610;2024-02-28T11:31:20;19.25;;;12.30;;
30096;SDS011;16915;51.466;3.610;2024-02-28T11:33:46;22.02;;;13.23;;
30096;SDS011;16915;51.466;3.610;2024-02-28T11:36:12;19.30;;;12.05;;
30096;SDS011;16915;51.466;3.610;2024-02-28T11:38:39;20.90;;;12.65;;
30096;SDS011;16915;51.466;3.610;2024-02-28T11:41:05;22.98;;;13.70;;
30096;SDS011;16915;51.466;3.610;2024-02-28T11:43:31;19.55;;;12.38;;
30096;SDS011;16915;51.466;3.610;2024-02-28T11:45:57;21.10;;;13.48;;
30096;SDS011;16915;51.466;3.610;2024-02-28T11:48:24;24.80;;;14.32;;
30096;SDS011;16915;51.466;3.610;2024-02-28T11:50:51;27.33;;;14.50;;
30096;SDS011;16915;51.466;3.610;2024-02-28T11:53:17;28.13;;;14.88;;
30096;SDS011;16915;51.466;3.610;2024-02-28T11:55:43;23.02;;;13.77;;
30096;SDS011;16915;51.466;3.610;2024-02-28T11:58:12;21.63;;;12.82;;
30096;SDS011;16915;51.466;3.610;2024-02-28T12:00:47;23.13;;;13.40;;
30096;SDS011;16915;51.466;3.610;2024-02-28T12:03:14;23.27;;;14.55;;
30096;SDS011;16915;51.466;3.610;2024-02-28T12:05:44;24.80;;;15.82;;
30096;SDS011;16915;51.466;3.610;2024-02-28T12:08:11;23.23;;;14.30;;
30096;SDS011;16915;51.466;3.610;2024-02-28T12:10:36;25.58;;;15.48;;
30096;SDS011;16915;51.466;3.610;2024-02-28T12:13:02;26.67;;;16.00;;
30096;SDS011;16915;51.466;3.610;2024-02-28T12:15:29;30.30;;;17.25;;
30096;SDS011;16915;51.466;3.610;2024-02-28T12:17:54;31.42;;;18.27;;
30096;SDS011;16915;51.466;3.610;2024-02-28T12:20:20;28.52;;;16.67;;
30096;SDS011;16915;51.466;3.610;2024-02-28T12:22:45;30.25;;;17.23;;
30096;SDS011;16915;51.466;3.610;2024-02-28T12:25:11;30.17;;;16.55;;
30096;SDS011;16915;51.466;3.610;2024-02-28T12:27:36;24.40;;;14.43;;
30096;SDS011;16915;51.466;3.610;2024-02-28T12:30:02;21.35;;;13.20;;
30096;SDS011;16915;51.466;3.610;2024-02-28T12:32:28;20.52;;;12.32;;
30096;SDS011;16915;51.466;3.610;2024-02-28T12:34:53;21.23;;;12.45;;
30096;SDS011;16915;51.466;3.610;2024-02-28T12:37:19;19.60;;;12.32;;
30096;SDS011;16915;51.466;3.610;2024-02-28T12:39:44;16.08;;;11.15;;
30096;SDS011;16915;51.466;3.610;2024-02-28T12:42:12;16.63;;;10.32;;
30096;SDS011;16915;51.466;3.610;2024-02-28T12:44:38;19.50;;;10.80;;
30096;SDS011;16915;51.466;3.610;2024-02-28T12:47:05;20.98;;;11.32;;
30096;SDS011;16915;51.466;3.610;2024-02-28T12:49:31;18.35;;;10.88;;
30096;SDS011;16915;51.466;3.610;2024-02-28T12:51:57;15.43;;;10.88;;
30096;SDS011;16915;51.466;3.610;2024-02-28T12:54:22;17.13;;;10.50;;
30096;SDS011;16915;51.466;3.610;2024-02-28T12:56:48;15.75;;;10.82;;
30096;SDS011;16915;51.466;3.610;2024-02-28T12:59:14;17.70;;;10.85;;
30096;SDS011;16915;51.466;3.610;2024-02-28T13:01:40;18.50;;;10.40;;
30096;SDS011;16915;51.466;3.610;2024-02-28T13:04:06;17.33;;;11.68;;
30096;SDS011;16915;51.466;3.610;2024-02-28T13:06:31;16.77;;;10.75;;
30096;SDS011;16915;51.466;3.610;2024-02-28T13:08:57;21.20;;;11.68;;
30096;SDS011;16915;51.466;3.610;2024-02-28T13:11:23;21.13;;;12.13;;
30096;SDS011;16915;51.466;3.610;2024-02-28T13:13:50;19.15;;;11.52;;
30096;SDS011;16915;51.466;3.610;2024-02-28T13:16:16;17.40;;;10.88;;
30096;SDS011;16915;51.466;3.610;2024-02-28T13:18:42;20.80;;;11.80;;
30096;SDS011;16915;51.466;3.610;2024-02-28T13:21:08;21.77;;;12.10;;
30096;SDS011;16915;51.466;3.610;2024-02-28T13:23:37;17.85;;;11.80;;
30096;SDS011;16915;51.466;3.610;2024-02-28T13:26:06;21.73;;;12.77;;
30096;SDS011;16915;51.466;3.610;2024-02-28T13:28:33;25.50;;;11.77;;
30096;SDS011;16915;51.466;3.610;2024-02-28T13:31:00;22.38;;;12.38;;
30096;SDS011;16915;51.466;3.610;2024-02-28T13:33:27;18.35;;;12.48;;
30096;SDS011;16915;51.466;3.610;2024-02-28T13:35:53;16.63;;;11.48;;
30096;SDS011;16915;51.466;3.610;2024-02-28T13:38:19;18.38;;;11.27;;
30096;SDS011;16915;51.466;3.610;2024-02-28T13:40:45;16.85;;;12.00;;
30096;SDS011;16915;51.466;3.610;2024-02-28T13:43:11;15.15;;;11.05;;
30096;SDS011;16915;51.466;3.610;2024-02-28T13:45:40;17.35;;;10.80;;
30096;SDS011;16915;51.466;3.610;2024-02-28T13:48:16;15.48;;;10.63;;
30096;SDS011;16915;51.466;3.610;2024-02-28T13:50:43;16.02;;;11.10;;
30096;SDS011;16915;51.466;3.610;2024-02-28T13:53:12;18.83;;;11.73;;
30096;SDS011;16915;51.466;3.610;2024-02-28T13:55:39;16.45;;;11.05;;
30096;SDS011;16915;51.466;3.610;2024-02-28T13:58:05;14.35;;;10.35;;
30096;SDS011;16915;51.466;3.610;2024-02-28T14:00:31;16.73;;;9.95;;
30096;SDS011;16915;51.466;3.610;2024-02-28T14:02:59;16.20;;;9.57;;
30096;SDS011;16915;51.466;3.610;2024-02-28T14:05:25;10.85;;;8.82;;
30096;SDS011;16915;51.466;3.610;2024-02-28T14:07:50;13.30;;;9.70;;
30096;SDS011;16915;51.466;3.610;2024-02-28T14:10:16;9.75;;;8.73;;
30096;SDS011;16915;51.466;3.610;2024-02-28T14:12:41;14.10;;;8.57;;
30096;SDS011;16915;51.466;3.610;2024-02-28T14:15:07;17.27;;;8.70;;
30096;SDS011;16915;51.466;3.610;2024-02-28T14:17:36;10.52;;;8.48;;
30096;SDS011;16915;51.466;3.610;2024-02-28T14:20:01;10.48;;;7.75;;
30096;SDS011;16915;51.466;3.610;2024-02-28T14:22:27;11.60;;;7.75;;
30096;SDS011;16915;51.466;3.610;2024-02-28T14:24:52;9.60;;;7.65;;